sensor_id;sensor_type;location;lat;lon;timestamp;P1;durP1;ratioP1;P2;durP2;ratioP2
27517;SDS011;14962;52.482;13.142;2024-01-15T00:00:39;18.77;;;11.23;;
27517;SDS011;14962;52.482;13.142;2024-01-15T00:03:05;19.07;;;10.43;;
27517;SDS011;14962;52.482;13.142;2024-01-15T00:05:31;17.87;;;10.30;;
27517;SDS011;14962;52.482;13.142;2024-01-15T00:07:57;19.53;;;10.23;;
27517;SDS011;14962;52.482;13.142;2024-01-15T00:10:23;22.10;;;10.27;;
27517;SDS011;14962;52.482;13.142;2024-01-15T00:12:49;17.87;;;10.07;;
27517;SDS011;14962;52.482;13.142;2024-01-15T00:15:15;17.60;;;10.43;;
27517;SDS011;14962;52.482;13.142;2024-01-15T00:17:41;19.27;;;10.68;;
27517;SDS011;14962;52.482;13.142;2024-01-15T00:20:07;21.90;;;10.13;;
27517;SDS011;14962;52.482;13.142;2024-01-15T00:22:33;17.17;;;10.13;;
27517;SDS011;14962;52.482;13.142;2024-01-15T00:25:00;18.65;;;9.75;;
27517;SDS011;14962;52.482;13.142;2024-01-15T00:27:27;16.00;;;10.35;;
27517;SDS011;14962;52.482;13.142;2024-01-15T00:29:52;16.98;;;9.50;;
27517;SDS011;14962;52.482;13.142;2024-01-15T00:32:19;17.52;;;10.07;;
27517;SDS011;14962;52.482;13.142;2024-01-15T00:34:45;17.92;;;10.25;;
27517;SDS011;14962;52.482;13.142;2024-01-15T00:37:11;16.92;;;9.48;;
27517;SDS011;14962;52.482;13.142;2024-01-15T00:39:37;18.88;;;10.00;;
27517;SDS011;14962;52.482;13.142;2024-01-15T00:42:03;15.73;;;9.60;;
27517;SDS011;14962;52.482;13.142;2024-01-15T00:44:29;18.15;;;10.10;;
27517;SDS011;14962;52.482;13.142;2024-01-15T00:46:55;19.95;;;10.63;;
27517;SDS011;14962;52.482;13.142;2024-01-15T00:49:21;17.55;;;9.50;;
27517;SDS011;14962;52.482;13.142;2024-01-15T00:51:47;18.13;;;10.30;;
27517;SDS011;14962;52.482;13.142;2024-01-15T00:54:13;18.38;;;9.73;;
27517;SDS011;14962;52.482;13.142;2024-01-15T00:56:39;17.40;;;9.90;;
27517;SDS011;14962;52.482;13.142;2024-01-15T00:59:05;16.15;;;9.65;;
27517;SDS011;14962;52.482;13.142;2024-01-15T01:01:32;19.48;;;9.85;;
27517;SDS011;14962;52.482;13.142;2024-01-15T01:03:58;17.88;;;9.93;;
27517;SDS011;14962;52.482;13.142;2024-01-15T01:06:24;21.40;;;10.48;;
27517;SDS011;14962;52.482;13.142;2024-01-15T01:08:50;19.90;;;10.25;;
27517;SDS011;14962;52.482;13.142;2024-01-15T01:11:16;19.65;;;9.80;;
27517;SDS011;14962;52.482;13.142;2024-01-15T01:13:42;20.00;;;10.55;;
27517;SDS011;14962;52.482;13.142;2024-01-15T01:16:08;18.33;;;10.25;;
27517;SDS011;14962;52.482;13.142;2024-01-15T01:18:34;20.88;;;10.70;;
27517;SDS011;14962;52.482;13.142;2024-01-15T01:21:01;22.55;;;11.00;;
27517;SDS011;14962;52.482;13.142;2024-01-15T01:23:27;21.50;;;11.07;;
27517;SDS011;14962;52.482;13.142;2024-01-15T01:25:53;20.20;;;11.17;;
27517;SDS011;14962;52.482;13.142;2024-01-15T01:28:19;22.87;;;11.43;;
27517;SDS011;14962;52.482;13.142;2024-01-15T01:30:45;22.27;;;11.53;;
27517;SDS011;14962;52.482;13.142;2024-01-15T01:33:11;19.33;;;10.73;;
27517;SDS011;14962;52.482;13.142;2024-01-15T01:35:37;25.02;;;12.23;;
27517;SDS011;14962;52.482;13.142;2024-01-15T01:38:03;23.48;;;11.75;;
27517;SDS011;14962;52.482;13.142;2024-01-15T01:40:29;21.58;;;11.55;;
27517;SDS011;14962;52.482;13.142;2024-01-15T01:42:55;22.63;;;11.40;;
27517;SDS011;14962;52.482;13.142;2024-01-15T01:45:21;22.67;;;11.70;;
27517;SDS011;14962;52.482;13.142;2024-01-15T01:47:47;23.13;;;12.02;;
27517;SDS011;14962;52.482;13.142;2024-01-15T01:50:13;18.73;;;11.23;;
27517;SDS011;14962;52.482;13.142;2024-01-15T01:52:40;20.52;;;11.10;;
27517;SDS011;14962;52.482;13.142;2024-01-15T01:55:06;20.55;;;11.38;;
27517;SDS011;14962;52.482;13.142;2024-01-15T01:57:33;20.05;;;11.40;;
27517;SDS011;14962;52.482;13.142;2024-01-15T02:00:00;24.02;;;11.10;;
27517;SDS011;14962;52.482;13.142;2024-01-15T02:02:26;25.50;;;11.73;;
27517;SDS011;14962;52.482;13.142;2024-01-15T02:04:52;21.88;;;10.55;;
27517;SDS011;14962;52.482;13.142;2024-01-15T02:07:19;20.02;;;10.60;;
27517;SDS011;14962;52.482;13.142;2024-01-15T02:09:45;18.90;;;9.85;;
27517;SDS011;14962;52.482;13.142;2024-01-15T02:12:11;20.10;;;10.43;;
27517;SDS011;14962;52.482;13.142;2024-01-15T02:14:37;17.75;;;9.65;;
27517;SDS011;14962;52.482;13.142;2024-01-15T02:17:03;18.30;;;9.73;;
27517;SDS011;14962;52.482;13.142;2024-01-15T02:19:29;17.67;;;9.38;;
27517;SDS011;14962;52.482;13.142;2024-01-15T02:21:55;17.30;;;8.80;;
27517;SDS011;14962;52.482;13.142;2024-01-15T02:24:21;16.40;;;8.00;;
27517;SDS011;14962;52.482;13.142;2024-01-15T02:26:47;14.30;;;7.70;;
27517;SDS011;14962;52.482;13.142;2024-01-15T02:29:13;15.05;;;7.65;;
27517;SDS011;14962;52.482;13.142;2024-01-15T02:31:40;14.27;;;7.40;;
27517;SDS011;14962;52.482;13.142;2024-01-15T02:34:06;14.47;;;7.30;;
27517;SDS011;14962;52.482;13.142;2024-01-15T02:36:32;14.82;;;7.40;;
27517;SDS011;14962;52.482;13.142;2024-01-15T02:38:58;16.90;;;7.97;;
27517;SDS011;14962;52.482;13.142;2024-01-15T02:41:24;15.23;;;7.77;;
27517;SDS011;14962;52.482;13.142;2024-01-15T02:43:50;14.40;;;7.80;;
27517;SDS011;14962;52.482;13.142;2024-01-15T02:46:16;15.60;;;8.33;;
27517;SDS011;14962;52.482;13.142;2024-01-15T02:48:42;15.93;;;8.07;;
27517;SDS011;14962;52.482;13.142;2024-01-15T02:51:08;14.75;;;8.18;;
27517;SDS011;14962;52.482;13.142;2024-01-15T02:53:35;17.73;;;7.60;;
27517;SDS011;14962;52.482;13.142;2024-01-15T02:56:01;13.25;;;7.50;;
27517;SDS011;14962;52.482;13.142;2024-01-15T02:58:27;12.88;;;7.60;;
27517;SDS011;14962;52.482;13.142;2024-01-15T03:00:53;14.73;;;7.20;;
27517;SDS011;14962;52.482;13.142;2024-01-15T03:03:19;13.77;;;7.35;;
27517;SDS011;14962;52.482;13.142;2024-01-15T03:05:45;13.82;;;7.50;;
27517;SDS011;14962;52.482;13.142;2024-01-15T03:08:12;14.55;;;6.70;;
27517;SDS011;14962;52.482;13.142;2024-01-15T03:10:38;13.63;;;7.03;;
27517;SDS011;14962;52.482;13.142;2024-01-15T03:13:03;13.65;;;6.93;;
27517;SDS011;14962;52.482;13.142;2024-01-15T03:15:29;13.57;;;6.75;;
27517;SDS011;14962;52.482;13.142;2024-01-15T03:17:55;14.75;;;6.95;;
27517;SDS011;14962;52.482;13.142;2024-01-15T03:20:21;12.82;;;6.43;;
27517;SDS011;14962;52.482;13.142;2024-01-15T03:22:47;14.13;;;6.68;;
27517;SDS011;14962;52.482;13.142;2024-01-15T03:25:14;14.00;;;6.40;;
27517;SDS011;14962;52.482;13.142;2024-01-15T03:27:40;13.50;;;6.22;;
27517;SDS011;14962;52.482;13.142;2024-01-15T03:30:06;15.63;;;6.55;;
27517;SDS011;14962;52.482;13.142;2024-01-15T03:32:32;15.93;;;6.70;;
27517;SDS011;14962;52.482;13.142;2024-01-15T03:34:58;11.73;;;6.13;;
27517;SDS011;14962;52.482;13.142;2024-01-15T03:37:24;15.80;;;6.53;;
27517;SDS011;14962;52.482;13.142;2024-01-15T03:39:50;14.90;;;5.88;;
27517;SDS011;14962;52.482;13.142;2024-01-15T03:42:16;12.05;;;5.70;;
27517;SDS011;14962;52.482;13.142;2024-01-15T03:44:42;12.13;;;6.30;;
27517;SDS011;14962;52.482;13.142;2024-01-15T03:47:08;13.52;;;6.20;;
27517;SDS011;14962;52.482;13.142;2024-01-15T03:49:34;15.00;;;6.15;;
27517;SDS011;14962;52.482;13.142;2024-01-15T03:52:00;12.70;;;5.85;;
27517;SDS011;14962;52.482;13.142;2024-01-15T03:54:26;14.35;;;6.32;;
27517;SDS011;14962;52.482;13.142;2024-01-15T03:56:52;15.15;;;6.13;;
27517;SDS011;14962;52.482;13.142;2024-01-15T03:59:18;14.05;;;6.00;;
27517;SDS011;14962;52.482;13.142;2024-01-15T04:01:50;12.35;;;6.03;;
27517;SDS011;14962;52.482;13.142;2024-01-15T04:04:16;13.23;;;6.07;;
27517;SDS011;14962;52.482;13.142;2024-01-15T04:06:42;13.00;;;5.50;;
27517;SDS011;14962;52.482;13.142;2024-01-15T04:09:08;13.27;;;5.40;;
27517;SDS011;14962;52.482;13.142;2024-01-15T04:11:34;12.43;;;5.60;;
27517;SDS011;14962;52.482;13.142;2024-01-15T04:14:01;13.15;;;5.32;;
27517;SDS011;14962;52.482;13.142;2024-01-15T04:16:27;15.40;;;5.50;;
27517;SDS011;14962;52.482;13.142;2024-01-15T04:18:53;14.10;;;5.38;;
27517;SDS011;14962;52.482;13.142;2024-01-15T04:21:19;12.48;;;5.57;;
27517;SDS011;14962;52.482;13.142;2024-01-15T04:23:45;11.43;;;4.55;;
27517;SDS011;14962;52.482;13.142;2024-01-15T04:26:11;12.73;;;5.10;;
27517;SDS011;14962;52.482;13.142;2024-01-15T04:28:37;14.73;;;4.70;;
27517;SDS011;14962;52.482;13.142;2024-01-15T04:31:03;11.23;;;5.00;;
27517;SDS011;14962;52.482;13.142;2024-01-15T04:33:29;13.13;;;4.63;;
27517;SDS011;14962;52.482;13.142;2024-01-15T04:35:55;14.77;;;4.45;;
27517;SDS011;14962;52.482;13.142;2024-01-15T04:38:21;15.52;;;4.63;;
27517;SDS011;14962;52.482;13.142;2024-01-15T04:40:47;11.45;;;4.05;;
27517;SDS011;14962;52.482;13.142;2024-01-15T04:43:13;11.52;;;4.10;;
27517;SDS011;14962;52.482;13.142;2024-01-15T04:45:38;10.35;;;3.92;;
27517;SDS011;14962;52.482;13.142;2024-01-15T04:48:04;10.95;;;4.03;;
27517;SDS011;14962;52.482;13.142;2024-01-15T04:50:30;7.80;;;3.75;;
27517;SDS011;14962;52.482;13.142;2024-01-15T04:52:56;13.18;;;4.03;;
27517;SDS011;14962;52.482;13.142;2024-01-15T04:55:22;10.75;;;3.70;;
27517;SDS011;14962;52.482;13.142;2024-01-15T04:57:48;8.88;;;3.10;;
27517;SDS011;14962;52.482;13.142;2024-01-15T05:00:14;8.52;;;3.38;;
27517;SDS011;14962;52.482;13.142;2024-01-15T05:02:40;13.15;;;3.35;;
27517;SDS011;14962;52.482;13.142;2024-01-15T05:05:07;9.98;;;3.45;;
27517;SDS011;14962;52.482;13.142;2024-01-15T05:07:33;12.40;;;3.50;;
27517;SDS011;14962;52.482;13.142;2024-01-15T05:09:59;8.68;;;3.30;;
27517;SDS011;14962;52.482;13.142;2024-01-15T05:12:25;10.25;;;3.42;;
27517;SDS011;14962;52.482;13.142;2024-01-15T05:14:51;12.20;;;3.35;;
27517;SDS011;14962;52.482;13.142;2024-01-15T05:17:16;8.32;;;3.05;;
27517;SDS011;14962;52.482;13.142;2024-01-15T05:19:42;10.57;;;4.55;;
27517;SDS011;14962;52.482;13.142;2024-01-15T05:22:08;9.77;;;2.85;;
27517;SDS011;14962;52.482;13.142;2024-01-15T05:24:34;12.38;;;2.97;;
27517;SDS011;14962;52.482;13.142;2024-01-15T05:27:00;9.63;;;2.80;;
27517;SDS011;14962;52.482;13.142;2024-01-15T05:29:26;11.10;;;3.03;;
27517;SDS011;14962;52.482;13.142;2024-01-15T05:31:53;12.18;;;2.88;;
27517;SDS011;14962;52.482;13.142;2024-01-15T05:34:18;6.60;;;2.55;;
27517;SDS011;14962;52.482;13.142;2024-01-15T05:36:44;9.80;;;2.67;;
27517;SDS011;14962;52.482;13.142;2024-01-15T05:39:12;8.02;;;2.75;;
27517;SDS011;14962;52.482;13.142;2024-01-15T05:41:38;9.63;;;2.97;;
27517;SDS011;14962;52.482;13.142;2024-01-15T05:44:04;8.57;;;2.50;;
27517;SDS011;14962;52.482;13.142;2024-01-15T05:46:30;8.27;;;2.53;;
27517;SDS011;14962;52.482;13.142;2024-01-15T05:48:56;9.85;;;2.10;;
27517;SDS011;14962;52.482;13.142;2024-01-15T05:51:22;12.10;;;2.50;;
27517;SDS011;14962;52.482;13.142;2024-01-15T05:53:48;10.00;;;2.50;;
27517;SDS011;14962;52.482;13.142;2024-01-15T05:56:14;10.50;;;2.85;;
27517;SDS011;14962;52.482;13.142;2024-01-15T05:58:40;11.75;;;2.58;;
27517;SDS011;14962;52.482;13.142;2024-01-15T06:01:06;7.25;;;2.58;;
27517;SDS011;14962;52.482;13.142;2024-01-15T06:03:32;6.82;;;2.40;;
27517;SDS011;14962;52.482;13.142;2024-01-15T06:05:58;11.85;;;2.50;;
27517;SDS011;14962;52.482;13.142;2024-01-15T06:08:24;11.18;;;2.80;;
27517;SDS011;14962;52.482;13.142;2024-01-15T06:10:52;9.52;;;2.60;;
27517;SDS011;14962;52.482;13.142;2024-01-15T06:13:18;8.02;;;2.20;;
27517;SDS011;14962;52.482;13.142;2024-01-15T06:15:44;8.10;;;2.25;;
27517;SDS011;14962;52.482;13.142;2024-01-15T06:18:10;8.73;;;2.58;;
27517;SDS011;14962;52.482;13.142;2024-01-15T06:20:36;8.93;;;2.33;;
27517;SDS011;14962;52.482;13.142;2024-01-15T06:23:03;10.48;;;2.25;;
27517;SDS011;14962;52.482;13.142;2024-01-15T06:25:29;11.13;;;2.50;;
27517;SDS011;14962;52.482;13.142;2024-01-15T06:27:55;7.63;;;2.40;;
27517;SDS011;14962;52.482;13.142;2024-01-15T06:30:21;8.50;;;2.25;;
27517;SDS011;14962;52.482;13.142;2024-01-15T06:32:47;7.05;;;2.20;;
27517;SDS011;14962;52.482;13.142;2024-01-15T06:35:13;10.67;;;2.53;;
27517;SDS011;14962;52.482;13.142;2024-01-15T06:37:39;8.38;;;2.33;;
27517;SDS011;14962;52.482;13.142;2024-01-15T06:40:05;9.23;;;2.10;;
27517;SDS011;14962;52.482;13.142;2024-01-15T06:42:31;10.90;;;2.65;;
27517;SDS011;14962;52.482;13.142;2024-01-15T06:44:58;8.80;;;2.13;;
27517;SDS011;14962;52.482;13.142;2024-01-15T06:47:24;8.57;;;2.17;;
27517;SDS011;14962;52.482;13.142;2024-01-15T06:49:50;9.40;;;2.03;;
27517;SDS011;14962;52.482;13.142;2024-01-15T06:52:16;7.10;;;1.60;;
27517;SDS011;14962;52.482;13.142;2024-01-15T06:54:42;9.32;;;2.15;;
27517;SDS011;14962;52.482;13.142;2024-01-15T06:57:08;7.72;;;1.90;;
27517;SDS011;14962;52.482;13.142;2024-01-15T06:59:34;9.10;;;1.70;;
27517;SDS011;14962;52.482;13.142;2024-01-15T07:02:00;10.30;;;1.90;;
27517;SDS011;14962;52.482;13.142;2024-01-15T07:04:26;7.30;;;2.00;;
27517;SDS011;14962;52.482;13.142;2024-01-15T07:06:52;10.35;;;2.25;;
27517;SDS011;14962;52.482;13.142;2024-01-15T07:09:18;8.90;;;1.85;;
27517;SDS011;14962;52.482;13.142;2024-01-15T07:11:45;8.05;;;1.90;;
27517;SDS011;14962;52.482;13.142;2024-01-15T07:14:14;8.80;;;1.58;;
27517;SDS011;14962;52.482;13.142;2024-01-15T07:16:40;10.20;;;2.10;;
27517;SDS011;14962;52.482;13.142;2024-01-15T07:19:06;7.88;;;1.67;;
27517;SDS011;14962;52.482;13.142;2024-01-15T07:21:32;10.80;;;1.63;;
27517;SDS011;14962;52.482;13.142;2024-01-15T07:23:58;11.70;;;2.20;;
27517;SDS011;14962;52.482;13.142;2024-01-15T07:26:24;11.00;;;1.63;;
27517;SDS011;14962;52.482;13.142;2024-01-15T07:28:50;10.90;;;2.38;;
27517;SDS011;14962;52.482;13.142;2024-01-15T07:31:16;12.18;;;1.77;;
27517;SDS011;14962;52.482;13.142;2024-01-15T07:33:42;7.60;;;1.73;;
27517;SDS011;14962;52.482;13.142;2024-01-15T07:36:09;13.88;;;2.15;;
27517;SDS011;14962;52.482;13.142;2024-01-15T07:38:34;9.15;;;2.08;;
27517;SDS011;14962;52.482;13.142;2024-01-15T07:41:00;8.65;;;1.80;;
27517;SDS011;14962;52.482;13.142;2024-01-15T07:43:26;14.07;;;2.50;;
27517;SDS011;14962;52.482;13.142;2024-01-15T07:45:53;8.18;;;1.92;;
27517;SDS011;14962;52.482;13.142;2024-01-15T07:48:19;7.88;;;1.92;;
27517;SDS011;14962;52.482;13.142;2024-01-15T07:50:45;6.83;;;2.30;;
27517;SDS011;14962;52.482;13.142;2024-01-15T07:53:11;13.33;;;2.27;;
27517;SDS011;14962;52.482;13.142;2024-01-15T07:55:37;10.33;;;2.10;;
27517;SDS011;14962;52.482;13.142;2024-01-15T07:58:03;8.37;;;2.03;;
27517;SDS011;14962;52.482;13.142;2024-01-15T08:00:29;15.18;;;2.45;;
27517;SDS011;14962;52.482;13.142;2024-01-15T08:02:55;12.75;;;1.92;;
27517;SDS011;14962;52.482;13.142;2024-01-15T08:05:21;11.50;;;1.90;;
27517;SDS011;14962;52.482;13.142;2024-01-15T08:07:47;11.90;;;1.90;;
27517;SDS011;14962;52.482;13.142;2024-01-15T08:10:13;8.07;;;1.60;;
27517;SDS011;14962;52.482;13.142;2024-01-15T08:12:39;11.13;;;2.00;;
27517;SDS011;14962;52.482;13.142;2024-01-15T08:15:05;10.73;;;2.00;;
27517;SDS011;14962;52.482;13.142;2024-01-15T08:17:31;9.67;;;2.10;;
27517;SDS011;14962;52.482;13.142;2024-01-15T08:19:57;6.20;;;1.70;;
27517;SDS011;14962;52.482;13.142;2024-01-15T08:22:24;6.03;;;1.80;;
27517;SDS011;14962;52.482;13.142;2024-01-15T08:24:50;9.40;;;2.40;;
27517;SDS011;14962;52.482;13.142;2024-01-15T08:27:16;8.20;;;1.77;;
27517;SDS011;14962;52.482;13.142;2024-01-15T08:29:42;7.28;;;1.73;;
27517;SDS011;14962;52.482;13.142;2024-01-15T08:32:09;8.75;;;1.60;;
27517;SDS011;14962;52.482;13.142;2024-01-15T08:34:39;10.23;;;1.80;;
27517;SDS011;14962;52.482;13.142;2024-01-15T08:37:05;6.97;;;1.48;;
27517;SDS011;14962;52.482;13.142;2024-01-15T08:39:31;9.70;;;2.17;;
27517;SDS011;14962;52.482;13.142;2024-01-15T08:41:56;7.95;;;1.98;;
27517;SDS011;14962;52.482;13.142;2024-01-15T08:44:22;8.57;;;1.80;;
27517;SDS011;14962;52.482;13.142;2024-01-15T08:46:48;7.63;;;1.90;;
27517;SDS011;14962;52.482;13.142;2024-01-15T08:49:14;10.73;;;1.70;;
27517;SDS011;14962;52.482;13.142;2024-01-15T08:51:40;6.30;;;1.55;;
27517;SDS011;14962;52.482;13.142;2024-01-15T08:54:06;13.43;;;2.00;;
27517;SDS011;14962;52.482;13.142;2024-01-15T08:56:33;7.25;;;2.00;;
27517;SDS011;14962;52.482;13.142;2024-01-15T08:58:59;5.68;;;1.83;;
27517;SDS011;14962;52.482;13.142;2024-01-15T09:01:25;9.53;;;2.30;;
27517;SDS011;14962;52.482;13.142;2024-01-15T09:03:51;9.90;;;2.20;;
27517;SDS011;14962;52.482;13.142;2024-01-15T09:06:17;11.50;;;2.20;;
27517;SDS011;14962;52.482;13.142;2024-01-15T09:08:44;9.52;;;2.28;;
27517;SDS011;14962;52.482;13.142;2024-01-15T09:11:10;12.35;;;2.30;;
27517;SDS011;14962;52.482;13.142;2024-01-15T09:13:36;7.22;;;1.70;;
27517;SDS011;14962;52.482;13.142;2024-01-15T09:16:02;6.60;;;1.80;;
27517;SDS011;14962;52.482;13.142;2024-01-15T09:18:28;11.68;;;2.17;;
27517;SDS011;14962;52.482;13.142;2024-01-15T09:20:54;7.73;;;1.87;;
27517;SDS011;14962;52.482;13.142;2024-01-15T09:23:20;9.10;;;1.70;;
27517;SDS011;14962;52.482;13.142;2024-01-15T09:25:46;7.88;;;1.63;;
27517;SDS011;14962;52.482;13.142;2024-01-15T09:28:13;12.60;;;1.93;;
27517;SDS011;14962;52.482;13.142;2024-01-15T09:30:39;9.53;;;1.97;;
27517;SDS011;14962;52.482;13.142;2024-01-15T09:33:05;9.43;;;2.00;;
27517;SDS011;14962;52.482;13.142;2024-01-15T09:35:31;7.30;;;1.90;;
27517;SDS011;14962;52.482;13.142;2024-01-15T09:37:57;10.70;;;1.97;;
27517;SDS011;14962;52.482;13.142;2024-01-15T09:40:23;11.83;;;1.97;;
27517;SDS011;14962;52.482;13.142;2024-01-15T09:42:49;7.00;;;1.75;;
27517;SDS011;14962;52.482;13.142;2024-01-15T09:45:16;6.07;;;1.50;;
27517;SDS011;14962;52.482;13.142;2024-01-15T09:47:42;8.77;;;2.08;;
27517;SDS011;14962;52.482;13.142;2024-01-15T09:50:08;10.07;;;1.90;;
27517;SDS011;14962;52.482;13.142;2024-01-15T09:52:34;7.95;;;1.70;;
27517;SDS011;14962;52.482;13.142;2024-01-15T09:55:01;8.05;;;1.55;;
27517;SDS011;14962;52.482;13.142;2024-01-15T09:57:28;6.25;;;1.60;;
27517;SDS011;14962;52.482;13.142;2024-01-15T09:59:54;6.03;;;1.90;;
27517;SDS011;14962;52.482;13.142;2024-01-15T10:02:20;11.05;;;1.50;;
27517;SDS011;14962;52.482;13.142;2024-01-15T10:04:46;4.88;;;1.75;;
27517;SDS011;14962;52.482;13.142;2024-01-15T10:07:15;7.00;;;1.65;;
27517;SDS011;14962;52.482;13.142;2024-01-15T10:09:44;3.97;;;1.42;;
27517;SDS011;14962;52.482;13.142;2024-01-15T10:12:10;6.90;;;1.70;;
27517;SDS011;14962;52.482;13.142;2024-01-15T10:14:37;6.33;;;1.80;;
27517;SDS011;14962;52.482;13.142;2024-01-15T10:17:12;4.27;;;1.53;;
27517;SDS011;14962;52.482;13.142;2024-01-15T10:19:42;5.45;;;1.52;;
27517;SDS011;14962;52.482;13.142;2024-01-15T10:22:08;6.07;;;1.52;;
27517;SDS011;14962;52.482;13.142;2024-01-15T10:24:37;7.32;;;1.60;;
27517;SDS011;14962;52.482;13.142;2024-01-15T10:27:07;4.40;;;1.42;;
27517;SDS011;14962;52.482;13.142;2024-01-15T10:29:34;5.83;;;1.57;;
27517;SDS011;14962;52.482;13.142;2024-01-15T10:32:00;8.63;;;1.80;;
27517;SDS011;14962;52.482;13.142;2024-01-15T10:34:26;7.53;;;1.80;;
27517;SDS011;14962;52.482;13.142;2024-01-15T10:36:52;4.67;;;1.70;;
27517;SDS011;14962;52.482;13.142;2024-01-15T10:39:23;3.50;;;1.30;;
27517;SDS011;14962;52.482;13.142;2024-01-15T10:41:49;6.67;;;1.60;;
27517;SDS011;14962;52.482;13.142;2024-01-15T10:44:16;3.63;;;1.30;;
27517;SDS011;14962;52.482;13.142;2024-01-15T10:46:43;8.00;;;1.50;;
27517;SDS011;14962;52.482;13.142;2024-01-15T10:49:09;3.43;;;1.20;;
27517;SDS011;14962;52.482;13.142;2024-01-15T10:51:36;4.55;;;1.25;;
27517;SDS011;14962;52.482;13.142;2024-01-15T10:54:02;3.83;;;1.10;;
27517;SDS011;14962;52.482;13.142;2024-01-15T10:56:29;4.65;;;1.40;;
27517;SDS011;14962;52.482;13.142;2024-01-15T10:58:55;6.22;;;1.30;;
27517;SDS011;14962;52.482;13.142;2024-01-15T11:01:21;4.03;;;1.13;;
27517;SDS011;14962;52.482;13.142;2024-01-15T11:03:47;5.18;;;1.50;;
27517;SDS011;14962;52.482;13.142;2024-01-15T11:06:17;3.55;;;0.93;;
27517;SDS011;14962;52.482;13.142;2024-01-15T11:08:44;5.43;;;0.82;;
27517;SDS011;14962;52.482;13.142;2024-01-15T11:11:10;3.17;;;1.05;;
27517;SDS011;14962;52.482;13.142;2024-01-15T11:16:06;3.65;;;1.23;;
27517;SDS011;14962;52.482;13.142;2024-01-15T11:18:36;3.35;;;0.93;;
27517;SDS011;14962;52.482;13.142;2024-01-15T11:23:47;7.43;;;1.30;;
27517;SDS011;14962;52.482;13.142;2024-01-15T11:29:05;2.67;;;1.33;;
27517;SDS011;14962;52.482;13.142;2024-01-15T11:34:10;4.00;;;1.60;;
27517;SDS011;14962;52.482;13.142;2024-01-15T11:41:57;5.93;;;1.42;;
27517;SDS011;14962;52.482;13.142;2024-01-15T11:44:24;4.43;;;1.40;;
27517;SDS011;14962;52.482;13.142;2024-01-15T11:46:57;4.20;;;1.70;;
27517;SDS011;14962;52.482;13.142;2024-01-15T11:50:08;3.90;;;1.50;;
27517;SDS011;14962;52.482;13.142;2024-01-15T11:52:11;3.60;;;1.50;;
27517;SDS011;14962;52.482;13.142;2024-01-15T11:54:38;3.28;;;1.48;;
27517;SDS011;14962;52.482;13.142;2024-01-15T11:57:05;4.00;;;1.55;;
27517;SDS011;14962;52.482;13.142;2024-01-15T11:59:34;3.08;;;1.58;;
27517;SDS011;14962;52.482;13.142;2024-01-15T12:02:00;3.15;;;1.30;;
27517;SDS011;14962;52.482;13.142;2024-01-15T12:04:26;3.45;;;1.50;;
27517;SDS011;14962;52.482;13.142;2024-01-15T12:06:52;2.65;;;1.38;;
27517;SDS011;14962;52.482;13.142;2024-01-15T12:09:21;4.80;;;1.60;;
27517;SDS011;14962;52.482;13.142;2024-01-15T12:11:51;3.42;;;1.70;;
27517;SDS011;14962;52.482;13.142;2024-01-15T12:14:20;3.38;;;1.50;;
27517;SDS011;14962;52.482;13.142;2024-01-15T12:16:46;2.40;;;1.45;;
27517;SDS011;14962;52.482;13.142;2024-01-15T12:19:12;3.63;;;1.67;;
27517;SDS011;14962;52.482;13.142;2024-01-15T12:21:39;4.63;;;1.55;;
27517;SDS011;14962;52.482;13.142;2024-01-15T12:24:07;2.80;;;1.55;;
27517;SDS011;14962;52.482;13.142;2024-01-15T12:26:33;2.33;;;1.35;;
27517;SDS011;14962;52.482;13.142;2024-01-15T12:29:01;1.90;;;1.17;;
27517;SDS011;14962;52.482;13.142;2024-01-15T12:31:27;1.83;;;1.20;;
27517;SDS011;14962;52.482;13.142;2024-01-15T12:33:53;2.95;;;1.45;;
27517;SDS011;14962;52.482;13.142;2024-01-15T12:36:22;1.80;;;1.30;;
27517;SDS011;14962;52.482;13.142;2024-01-15T12:38:48;4.10;;;1.50;;
27517;SDS011;14962;52.482;13.142;2024-01-15T12:41:14;2.00;;;1.42;;
27517;SDS011;14962;52.482;13.142;2024-01-15T12:43:40;3.93;;;1.50;;
27517;SDS011;14962;52.482;13.142;2024-01-15T12:46:06;3.63;;;1.80;;
27517;SDS011;14962;52.482;13.142;2024-01-15T12:48:32;2.63;;;1.63;;
27517;SDS011;14962;52.482;13.142;2024-01-15T12:50:58;2.78;;;1.52;;
27517;SDS011;14962;52.482;13.142;2024-01-15T12:53:25;2.80;;;1.42;;
27517;SDS011;14962;52.482;13.142;2024-01-15T12:55:51;3.58;;;1.48;;
27517;SDS011;14962;52.482;13.142;2024-01-15T12:58:18;3.83;;;1.50;;
27517;SDS011;14962;52.482;13.142;2024-01-15T13:00:44;7.18;;;1.90;;
27517;SDS011;14962;52.482;13.142;2024-01-15T13:03:10;3.72;;;1.50;;
27517;SDS011;14962;52.482;13.142;2024-01-15T13:05:36;3.30;;;1.60;;
27517;SDS011;14962;52.482;13.142;2024-01-15T13:08:02;3.63;;;1.70;;
27517;SDS011;14962;52.482;13.142;2024-01-15T13:10:28;2.97;;;1.70;;
27517;SDS011;14962;52.482;13.142;2024-01-15T13:12:55;3.60;;;1.67;;
27517;SDS011;14962;52.482;13.142;2024-01-15T13:15:21;3.92;;;1.70;;
27517;SDS011;14962;52.482;13.142;2024-01-15T13:17:47;2.58;;;1.50;;
27517;SDS011;14962;52.482;13.142;2024-01-15T13:20:13;4.50;;;1.70;;
27517;SDS011;14962;52.482;13.142;2024-01-15T13:22:39;8.00;;;1.92;;
27517;SDS011;14962;52.482;13.142;2024-01-15T13:25:05;4.32;;;1.83;;
27517;SDS011;14962;52.482;13.142;2024-01-15T13:27:32;3.45;;;1.50;;
27517;SDS011;14962;52.482;13.142;2024-01-15T13:30:01;5.13;;;1.67;;
27517;SDS011;14962;52.482;13.142;2024-01-15T13:32:28;4.43;;;1.90;;
27517;SDS011;14962;52.482;13.142;2024-01-15T13:34:55;5.43;;;1.58;;
27517;SDS011;14962;52.482;13.142;2024-01-15T13:37:21;3.70;;;1.60;;
27517;SDS011;14962;52.482;13.142;2024-01-15T13:39:49;4.82;;;1.70;;
27517;SDS011;14962;52.482;13.142;2024-01-15T13:42:16;4.85;;;1.90;;
27517;SDS011;14962;52.482;13.142;2024-01-15T13:44:42;5.80;;;1.98;;
27517;SDS011;14962;52.482;13.142;2024-01-15T13:47:08;5.55;;;1.90;;
27517;SDS011;14962;52.482;13.142;2024-01-15T13:49:35;3.30;;;1.60;;
27517;SDS011;14962;52.482;13.142;2024-01-15T13:52:01;5.97;;;1.80;;
27517;SDS011;14962;52.482;13.142;2024-01-15T13:54:28;5.57;;;1.70;;
27517;SDS011;14962;52.482;13.142;2024-01-15T13:56:55;8.13;;;2.27;;
27517;SDS011;14962;52.482;13.142;2024-01-15T13:59:21;5.47;;;1.80;;
27517;SDS011;14962;52.482;13.142;2024-01-15T14:01:47;8.90;;;1.98;;
27517;SDS011;14962;52.482;13.142;2024-01-15T14:04:13;7.95;;;2.53;;
27517;SDS011;14962;52.482;13.142;2024-01-15T14:06:39;8.38;;;2.63;;
27517;SDS011;14962;52.482;13.142;2024-01-15T14:09:05;7.57;;;2.00;;
27517;SDS011;14962;52.482;13.142;2024-01-15T14:11:34;11.30;;;2.20;;
27517;SDS011;14962;52.482;13.142;2024-01-15T14:14:00;6.28;;;1.92;;
27517;SDS011;14962;52.482;13.142;2024-01-15T14:16:27;6.90;;;1.70;;
27517;SDS011;14962;52.482;13.142;2024-01-15T14:18:53;6.70;;;1.70;;
27517;SDS011;14962;52.482;13.142;2024-01-15T14:21:19;6.60;;;1.88;;
27517;SDS011;14962;52.482;13.142;2024-01-15T14:23:45;5.53;;;1.67;;
27517;SDS011;14962;52.482;13.142;2024-01-15T14:26:11;7.60;;;1.73;;
27517;SDS011;14962;52.482;13.142;2024-01-15T14:28:37;4.83;;;1.60;;
27517;SDS011;14962;52.482;13.142;2024-01-15T14:31:03;4.30;;;1.40;;
27517;SDS011;14962;52.482;13.142;2024-01-15T14:33:30;6.33;;;1.53;;
27517;SDS011;14962;52.482;13.142;2024-01-15T14:35:56;4.57;;;1.30;;